sensor_id;sensor_type;location;lat;lon;timestamp;P1;durP1;ratioP1;P2;durP2;ratioP2
75739;SDS011;64357;51.344;6.550;2023-12-20T00:00:00;7.45;;;2.58;;
75739;SDS011;64357;51.344;6.550;2023-12-20T00:02:26;7.20;;;2.30;;
75739;SDS011;64357;51.344;6.550;2023-12-20T00:04:51;6.10;;;1.97;;
75739;SDS011;64357;51.344;6.550;2023-12-20T00:07:16;9.23;;;2.37;;
75739;SDS011;64357;51.344;6.550;2023-12-20T00:09:45;5.55;;;1.60;;
75739;SDS011;64357;51.344;6.550;2023-12-20T00:12:12;7.00;;;2.20;;
75739;SDS011;64357;51.344;6.550;2023-12-20T00:14:37;6.23;;;2.27;;
75739;SDS011;64357;51.344;6.550;2023-12-20T00:17:07;7.82;;;2.45;;
75739;SDS011;64357;51.344;6.550;2023-12-20T00:19:33;13.23;;;3.08;;
75739;SDS011;64357;51.344;6.550;2023-12-20T00:22:00;9.55;;;2.90;;
75739;SDS011;64357;51.344;6.550;2023-12-20T00:24:26;11.32;;;3.42;;
75739;SDS011;64357;51.344;6.550;2023-12-20T00:26:52;9.43;;;2.90;;
75739;SDS011;64357;51.344;6.550;2023-12-20T00:29:19;12.93;;;3.47;;
75739;SDS011;64357;51.344;6.550;2023-12-20T00:31:47;8.15;;;2.88;;
75739;SDS011;64357;51.344;6.550;2023-12-20T00:34:13;8.32;;;2.95;;
75739;SDS011;64357;51.344;6.550;2023-12-20T00:36:39;9.52;;;3.13;;
75739;SDS011;64357;51.344;6.550;2023-12-20T00:39:04;14.07;;;3.13;;
75739;SDS011;64357;51.344;6.550;2023-12-20T00:41:34;8.00;;;2.47;;
75739;SDS011;64357;51.344;6.550;2023-12-20T00:43:59;7.40;;;2.80;;
75739;SDS011;64357;51.344;6.550;2023-12-20T00:46:25;5.45;;;1.90;;
75739;SDS011;64357;51.344;6.550;2023-12-20T00:48:50;8.23;;;2.03;;
75739;SDS011;64357;51.344;6.550;2023-12-20T00:51:15;8.60;;;2.93;;
75739;SDS011;64357;51.344;6.550;2023-12-20T00:53:47;10.13;;;3.58;;
75739;SDS011;64357;51.344;6.550;2023-12-20T00:56:17;9.52;;;3.42;;
75739;SDS011;64357;51.344;6.550;2023-12-20T00:59:03;6.05;;;2.50;;
75739;SDS011;64357;51.344;6.550;2023-12-20T01:01:28;8.77;;;3.23;;
75739;SDS011;64357;51.344;6.550;2023-12-20T01:04:00;11.02;;;3.97;;
75739;SDS011;64357;51.344;6.550;2023-12-20T01:06:28;14.27;;;4.55;;
75739;SDS011;64357;51.344;6.550;2023-12-20T01:08:53;13.43;;;4.43;;
75739;SDS011;64357;51.344;6.550;2023-12-20T01:11:19;11.65;;;4.43;;
75739;SDS011;64357;51.344;6.550;2023-12-20T01:13:44;11.67;;;4.47;;
75739;SDS011;64357;51.344;6.550;2023-12-20T01:16:10;14.13;;;5.28;;
75739;SDS011;64357;51.344;6.550;2023-12-20T01:18:37;16.38;;;5.63;;
75739;SDS011;64357;51.344;6.550;2023-12-20T01:21:05;7.60;;;3.58;;
75739;SDS011;64357;51.344;6.550;2023-12-20T01:23:31;9.98;;;4.15;;
75739;SDS011;64357;51.344;6.550;2023-12-20T01:25:57;10.07;;;3.67;;
75739;SDS011;64357;51.344;6.550;2023-12-20T01:28:24;10.98;;;3.50;;
75739;SDS011;64357;51.344;6.550;2023-12-20T01:30:50;8.10;;;3.03;;
75739;SDS011;64357;51.344;6.550;2023-12-20T01:33:15;10.13;;;3.65;;
75739;SDS011;64357;51.344;6.550;2023-12-20T01:35:41;10.10;;;3.47;;
75739;SDS011;64357;51.344;6.550;2023-12-20T01:38:06;8.73;;;3.20;;
75739;SDS011;64357;51.344;6.550;2023-12-20T01:40:34;11.52;;;3.88;;
75739;SDS011;64357;51.344;6.550;2023-12-20T01:43:06;9.13;;;3.70;;
75739;SDS011;64357;51.344;6.550;2023-12-20T01:45:35;14.23;;;3.38;;
75739;SDS011;64357;51.344;6.550;2023-12-20T01:48:01;12.10;;;3.80;;
75739;SDS011;64357;51.344;6.550;2023-12-20T01:50:27;12.18;;;3.05;;
75739;SDS011;64357;51.344;6.550;2023-12-20T01:52:56;10.52;;;3.45;;
75739;SDS011;64357;51.344;6.550;2023-12-20T01:55:24;9.32;;;3.03;;
75739;SDS011;64357;51.344;6.550;2023-12-20T01:57:50;13.43;;;4.18;;
75739;SDS011;64357;51.344;6.550;2023-12-20T02:00:16;9.60;;;2.53;;
75739;SDS011;64357;51.344;6.550;2023-12-20T02:02:43;12.32;;;3.17;;
75739;SDS011;64357;51.344;6.550;2023-12-20T02:05:12;11.75;;;3.80;;
75739;SDS011;64357;51.344;6.550;2023-12-20T02:07:38;11.10;;;3.13;;
75739;SDS011;64357;51.344;6.550;2023-12-20T02:10:06;19.75;;;4.53;;
75739;SDS011;64357;51.344;6.550;2023-12-20T02:12:32;6.82;;;1.98;;
75739;SDS011;64357;51.344;6.550;2023-12-20T02:14:58;13.95;;;3.55;;
75739;SDS011;64357;51.344;6.550;2023-12-20T02:17:23;8.25;;;1.80;;
75739;SDS011;64357;51.344;6.550;2023-12-20T02:19:49;7.55;;;2.47;;
75739;SDS011;64357;51.344;6.550;2023-12-20T02:22:15;5.50;;;2.03;;
75739;SDS011;64357;51.344;6.550;2023-12-20T02:24:42;8.40;;;1.50;;
75739;SDS011;64357;51.344;6.550;2023-12-20T02:27:10;10.15;;;2.13;;
75739;SDS011;64357;51.344;6.550;2023-12-20T02:29:40;5.97;;;2.00;;
75739;SDS011;64357;51.344;6.550;2023-12-20T02:32:05;8.60;;;1.70;;
75739;SDS011;64357;51.344;6.550;2023-12-20T02:34:31;8.23;;;1.55;;
75739;SDS011;64357;51.344;6.550;2023-12-20T02:36:56;7.97;;;2.00;;
75739;SDS011;64357;51.344;6.550;2023-12-20T02:39:23;6.70;;;1.73;;
75739;SDS011;64357;51.344;6.550;2023-12-20T02:41:51;8.13;;;1.48;;
75739;SDS011;64357;51.344;6.550;2023-12-20T02:44:19;8.43;;;1.33;;
75739;SDS011;64357;51.344;6.550;2023-12-20T02:46:44;6.25;;;1.52;;
75739;SDS011;64357;51.344;6.550;2023-12-20T02:49:10;4.47;;;0.63;;
75739;SDS011;64357;51.344;6.550;2023-12-20T02:51:40;6.93;;;1.30;;
75739;SDS011;64357;51.344;6.550;2023-12-20T02:54:05;11.75;;;1.13;;
75739;SDS011;64357;51.344;6.550;2023-12-20T02:56:31;12.30;;;1.47;;
75739;SDS011;64357;51.344;6.550;2023-12-20T02:58:57;7.10;;;1.33;;
75739;SDS011;64357;51.344;6.550;2023-12-20T03:01:25;6.05;;;1.27;;
75739;SDS011;64357;51.344;6.550;2023-12-20T03:03:53;5.97;;;1.33;;
75739;SDS011;64357;51.344;6.550;2023-12-20T03:06:18;10.00;;;1.43;;
75739;SDS011;64357;51.344;6.550;2023-12-20T03:08:46;7.38;;;1.27;;
75739;SDS011;64357;51.344;6.550;2023-12-20T03:11:14;11.18;;;1.70;;
75739;SDS011;64357;51.344;6.550;2023-12-20T03:13:42;7.20;;;1.33;;
75739;SDS011;64357;51.344;6.550;2023-12-20T03:16:08;3.45;;;0.85;;
75739;SDS011;64357;51.344;6.550;2023-12-20T03:18:34;4.97;;;0.75;;
75739;SDS011;64357;51.344;6.550;2023-12-20T03:20:59;7.63;;;1.47;;
75739;SDS011;64357;51.344;6.550;2023-12-20T03:23:24;2.97;;;1.02;;
75739;SDS011;64357;51.344;6.550;2023-12-20T03:25:52;7.82;;;1.20;;
75739;SDS011;64357;51.344;6.550;2023-12-20T03:28:20;12.35;;;1.35;;
75739;SDS011;64357;51.344;6.550;2023-12-20T03:30:45;5.30;;;1.13;;
75739;SDS011;64357;51.344;6.550;2023-12-20T03:33:11;8.65;;;1.38;;
75739;SDS011;64357;51.344;6.550;2023-12-20T03:35:36;6.40;;;0.93;;
75739;SDS011;64357;51.344;6.550;2023-12-20T03:38:04;5.95;;;1.48;;
75739;SDS011;64357;51.344;6.550;2023-12-20T03:40:29;7.72;;;1.88;;
75739;SDS011;64357;51.344;6.550;2023-12-20T03:42:55;3.00;;;0.73;;
75739;SDS011;64357;51.344;6.550;2023-12-20T03:45:20;5.87;;;1.33;;
75739;SDS011;64357;51.344;6.550;2023-12-20T03:47:45;8.50;;;1.50;;
75739;SDS011;64357;51.344;6.550;2023-12-20T03:50:11;12.82;;;1.27;;
75739;SDS011;64357;51.344;6.550;2023-12-20T03:52:44;11.00;;;1.40;;
75739;SDS011;64357;51.344;6.550;2023-12-20T03:55:17;4.90;;;0.90;;
75739;SDS011;64357;51.344;6.550;2023-12-20T03:57:42;14.82;;;2.67;;
75739;SDS011;64357;51.344;6.550;2023-12-20T04:00:08;8.05;;;1.35;;
75739;SDS011;64357;51.344;6.550;2023-12-20T04:02:35;4.43;;;1.23;;
75739;SDS011;64357;51.344;6.550;2023-12-20T04:05:07;8.20;;;1.25;;
75739;SDS011;64357;51.344;6.550;2023-12-20T04:07:33;11.20;;;1.60;;
75739;SDS011;64357;51.344;6.550;2023-12-20T04:09:59;5.72;;;1.00;;
75739;SDS011;64357;51.344;6.550;2023-12-20T04:12:25;12.50;;;1.98;;
75739;SDS011;64357;51.344;6.550;2023-12-20T04:14:51;3.50;;;0.80;;
75739;SDS011;64357;51.344;6.550;2023-12-20T04:17:19;4.85;;;1.42;;
75739;SDS011;64357;51.344;6.550;2023-12-20T04:19:50;13.65;;;1.70;;
75739;SDS011;64357;51.344;6.550;2023-12-20T04:22:19;10.98;;;1.75;;
75739;SDS011;64357;51.344;6.550;2023-12-20T04:24:44;12.63;;;2.38;;
75739;SDS011;64357;51.344;6.550;2023-12-20T04:27:10;6.55;;;1.23;;
75739;SDS011;64357;51.344;6.550;2023-12-20T04:29:38;8.55;;;1.50;;
75739;SDS011;64357;51.344;6.550;2023-12-20T04:32:04;8.60;;;2.27;;
75739;SDS011;64357;51.344;6.550;2023-12-20T04:34:29;10.15;;;1.83;;
75739;SDS011;64357;51.344;6.550;2023-12-20T04:36:55;14.10;;;2.47;;
75739;SDS011;64357;51.344;6.550;2023-12-20T04:39:20;7.03;;;1.30;;
75739;SDS011;64357;51.344;6.550;2023-12-20T04:41:46;4.57;;;1.52;;
75739;SDS011;64357;51.344;6.550;2023-12-20T04:44:12;3.55;;;1.42;;
75739;SDS011;64357;51.344;6.550;2023-12-20T04:46:38;7.20;;;2.15;;
75739;SDS011;64357;51.344;6.550;2023-12-20T04:49:04;13.20;;;2.10;;
75739;SDS011;64357;51.344;6.550;2023-12-20T04:51:29;9.20;;;2.37;;
75739;SDS011;64357;51.344;6.550;2023-12-20T04:53:55;5.80;;;2.00;;
75739;SDS011;64357;51.344;6.550;2023-12-20T04:56:22;6.05;;;2.03;;
75739;SDS011;64357;51.344;6.550;2023-12-20T04:58:47;13.80;;;2.30;;
75739;SDS011;64357;51.344;6.550;2023-12-20T05:01:14;6.53;;;2.33;;
75739;SDS011;64357;51.344;6.550;2023-12-20T05:03:42;10.95;;;2.58;;
75739;SDS011;64357;51.344;6.550;2023-12-20T05:06:07;11.93;;;2.70;;
75739;SDS011;64357;51.344;6.550;2023-12-20T05:08:33;8.07;;;1.83;;
75739;SDS011;64357;51.344;6.550;2023-12-20T05:10:58;12.33;;;2.17;;
75739;SDS011;64357;51.344;6.550;2023-12-20T05:13:26;14.37;;;2.30;;
75739;SDS011;64357;51.344;6.550;2023-12-20T05:15:51;6.75;;;1.95;;
75739;SDS011;64357;51.344;6.550;2023-12-20T05:18:17;7.03;;;1.70;;
75739;SDS011;64357;51.344;6.550;2023-12-20T05:20:42;7.73;;;1.87;;
75739;SDS011;64357;51.344;6.550;2023-12-20T05:23:07;7.90;;;1.10;;
75739;SDS011;64357;51.344;6.550;2023-12-20T05:25:36;8.38;;;2.13;;
75739;SDS011;64357;51.344;6.550;2023-12-20T05:28:04;11.27;;;2.85;;
75739;SDS011;64357;51.344;6.550;2023-12-20T05:30:34;7.32;;;1.98;;
75739;SDS011;64357;51.344;6.550;2023-12-20T05:33:02;7.43;;;1.73;;
75739;SDS011;64357;51.344;6.550;2023-12-20T05:35:27;5.40;;;1.80;;
75739;SDS011;64357;51.344;6.550;2023-12-20T05:37:52;11.47;;;2.50;;
75739;SDS011;64357;51.344;6.550;2023-12-20T05:40:18;5.87;;;1.73;;
75739;SDS011;64357;51.344;6.550;2023-12-20T05:42:43;10.17;;;2.27;;
75739;SDS011;64357;51.344;6.550;2023-12-20T05:45:11;13.88;;;2.20;;
75739;SDS011;64357;51.344;6.550;2023-12-20T05:47:38;10.37;;;2.67;;
75739;SDS011;64357;51.344;6.550;2023-12-20T05:50:04;15.07;;;2.53;;
75739;SDS011;64357;51.344;6.550;2023-12-20T05:52:32;6.78;;;1.83;;
75739;SDS011;64357;51.344;6.550;2023-12-20T05:54:58;10.95;;;2.60;;
75739;SDS011;64357;51.344;6.550;2023-12-20T05:57:26;9.82;;;2.28;;
75739;SDS011;64357;51.344;6.550;2023-12-20T05:59:54;7.10;;;2.10;;
75739;SDS011;64357;51.344;6.550;2023-12-20T06:02:22;6.47;;;1.48;;
75739;SDS011;64357;51.344;6.550;2023-12-20T06:04:47;14.23;;;2.20;;
75739;SDS011;64357;51.344;6.550;2023-12-20T06:07:15;7.03;;;1.77;;
75739;SDS011;64357;51.344;6.550;2023-12-20T06:09:40;7.28;;;1.48;;
75739;SDS011;64357;51.344;6.550;2023-12-20T06:12:08;7.50;;;1.75;;
75739;SDS011;64357;51.344;6.550;2023-12-20T06:14:33;5.93;;;1.27;;
75739;SDS011;64357;51.344;6.550;2023-12-20T06:16:59;17.17;;;2.80;;
75739;SDS011;64357;51.344;6.550;2023-12-20T06:19:26;11.38;;;1.77;;
75739;SDS011;64357;51.344;6.550;2023-12-20T06:21:51;10.90;;;2.10;;
75739;SDS011;64357;51.344;6.550;2023-12-20T06:24:19;8.88;;;1.83;;
75739;SDS011;64357;51.344;6.550;2023-12-20T06:26:47;6.20;;;1.63;;
75739;SDS011;64357;51.344;6.550;2023-12-20T06:29:12;9.73;;;2.00;;
75739;SDS011;64357;51.344;6.550;2023-12-20T06:31:37;10.73;;;1.88;;
75739;SDS011;64357;51.344;6.550;2023-12-20T06:34:03;8.05;;;2.10;;
75739;SDS011;64357;51.344;6.550;2023-12-20T06:36:28;3.00;;;1.42;;
75739;SDS011;64357;51.344;6.550;2023-12-20T06:38:53;8.73;;;2.20;;
75739;SDS011;64357;51.344;6.550;2023-12-20T06:41:19;8.57;;;2.27;;
75739;SDS011;64357;51.344;6.550;2023-12-20T06:43:49;10.95;;;2.00;;
75739;SDS011;64357;51.344;6.550;2023-12-20T06:46:15;12.32;;;2.10;;
75739;SDS011;64357;51.344;6.550;2023-12-20T06:48:40;7.20;;;2.05;;
75739;SDS011;64357;51.344;6.550;2023-12-20T06:51:10;11.55;;;2.58;;
75739;SDS011;64357;51.344;6.550;2023-12-20T06:53:37;7.80;;;1.75;;
75739;SDS011;64357;51.344;6.550;2023-12-20T06:56:03;7.70;;;2.13;;
75739;SDS011;64357;51.344;6.550;2023-12-20T06:58:28;11.43;;;1.45;;
75739;SDS011;64357;51.344;6.550;2023-12-20T07:00:56;16.30;;;4.00;;
75739;SDS011;64357;51.344;6.550;2023-12-20T07:03:21;7.70;;;1.57;;
75739;SDS011;64357;51.344;6.550;2023-12-20T07:05:47;8.65;;;2.30;;
75739;SDS011;64357;51.344;6.550;2023-12-20T07:08:13;7.60;;;1.33;;
75739;SDS011;64357;51.344;6.550;2023-12-20T07:10:39;11.30;;;2.17;;
75739;SDS011;64357;51.344;6.550;2023-12-20T07:13:07;8.73;;;1.95;;
75739;SDS011;64357;51.344;6.550;2023-12-20T07:15:32;7.03;;;1.10;;
75739;SDS011;64357;51.344;6.550;2023-12-20T07:18:01;7.72;;;2.30;;
75739;SDS011;64357;51.344;6.550;2023-12-20T07:20:30;8.05;;;1.60;;
75739;SDS011;64357;51.344;6.550;2023-12-20T07:22:55;8.00;;;2.00;;
75739;SDS011;64357;51.344;6.550;2023-12-20T07:25:21;10.90;;;1.53;;
75739;SDS011;64357;51.344;6.550;2023-12-20T07:27:46;4.00;;;1.30;;
75739;SDS011;64357;51.344;6.550;2023-12-20T07:30:14;11.40;;;2.33;;
75739;SDS011;64357;51.344;6.550;2023-12-20T07:32:39;10.75;;;2.28;;
75739;SDS011;64357;51.344;6.550;2023-12-20T07:35:05;10.27;;;2.17;;
75739;SDS011;64357;51.344;6.550;2023-12-20T07:37:30;8.45;;;2.03;;
75739;SDS011;64357;51.344;6.550;2023-12-20T07:39:58;11.25;;;2.08;;
75739;SDS011;64357;51.344;6.550;2023-12-20T07:42:28;9.70;;;2.72;;
75739;SDS011;64357;51.344;6.550;2023-12-20T07:44:54;17.38;;;3.15;;
75739;SDS011;64357;51.344;6.550;2023-12-20T07:47:21;8.35;;;2.10;;
75739;SDS011;64357;51.344;6.550;2023-12-20T07:49:49;13.33;;;3.33;;
75739;SDS011;64357;51.344;6.550;2023-12-20T07:52:16;9.68;;;2.42;;
75739;SDS011;64357;51.344;6.550;2023-12-20T07:54:42;8.65;;;2.85;;
75739;SDS011;64357;51.344;6.550;2023-12-20T07:57:07;8.07;;;2.00;;
75739;SDS011;64357;51.344;6.550;2023-12-20T07:59:33;8.83;;;2.47;;
75739;SDS011;64357;51.344;6.550;2023-12-20T08:01:58;7.60;;;2.40;;
75739;SDS011;64357;51.344;6.550;2023-12-20T08:04:23;12.40;;;2.60;;
75739;SDS011;64357;51.344;6.550;2023-12-20T08:06:49;11.47;;;2.53;;
75739;SDS011;64357;51.344;6.550;2023-12-20T08:09:15;14.80;;;3.15;;
75739;SDS011;64357;51.344;6.550;2023-12-20T08:11:47;8.50;;;2.65;;
75739;SDS011;64357;51.344;6.550;2023-12-20T08:14:13;6.63;;;1.85;;
75739;SDS011;64357;51.344;6.550;2023-12-20T08:16:38;6.38;;;2.25;;
75739;SDS011;64357;51.344;6.550;2023-12-20T08:19:04;5.82;;;1.60;;
75739;SDS011;64357;51.344;6.550;2023-12-20T08:21:29;5.00;;;1.40;;
75739;SDS011;64357;51.344;6.550;2023-12-20T08:23:55;15.00;;;3.10;;
75739;SDS011;64357;51.344;6.550;2023-12-20T08:26:25;10.98;;;2.65;;
75739;SDS011;64357;51.344;6.550;2023-12-20T08:28:51;12.73;;;2.35;;
75739;SDS011;64357;51.344;6.550;2023-12-20T08:31:16;14.33;;;2.67;;
75739;SDS011;64357;51.344;6.550;2023-12-20T08:33:46;10.73;;;2.90;;
75739;SDS011;64357;51.344;6.550;2023-12-20T08:36:12;11.02;;;2.05;;
75739;SDS011;64357;51.344;6.550;2023-12-20T08:38:38;2.72;;;1.15;;
75739;SDS011;64357;51.344;6.550;2023-12-20T08:41:04;8.82;;;2.60;;
75739;SDS011;64357;51.344;6.550;2023-12-20T08:43:33;6.55;;;1.63;;
75739;SDS011;64357;51.344;6.550;2023-12-20T08:45:59;8.20;;;1.70;;
75739;SDS011;64357;51.344;6.550;2023-12-20T08:48:25;12.40;;;1.80;;
75739;SDS011;64357;51.344;6.550;2023-12-20T08:50:50;14.10;;;2.53;;
75739;SDS011;64357;51.344;6.550;2023-12-20T08:53:17;6.82;;;1.70;;
75739;SDS011;64357;51.344;6.550;2023-12-20T08:55:43;11.35;;;2.45;;
75739;SDS011;64357;51.344;6.550;2023-12-20T08:58:10;8.90;;;1.30;;
75739;SDS011;64357;51.344;6.550;2023-12-20T09:00:36;9.85;;;1.60;;
75739;SDS011;64357;51.344;6.550;2023-12-20T09:03:03;7.32;;;1.60;;
75739;SDS011;64357;51.344;6.550;2023-12-20T09:05:31;9.18;;;1.85;;
75739;SDS011;64357;51.344;6.550;2023-12-20T09:07:59;4.38;;;0.95;;
75739;SDS011;64357;51.344;6.550;2023-12-20T09:10:25;8.17;;;1.60;;
75739;SDS011;64357;51.344;6.550;2023-12-20T09:12:56;8.17;;;1.93;;
75739;SDS011;64357;51.344;6.550;2023-12-20T09:15:26;8.38;;;1.90;;
75739;SDS011;64357;51.344;6.550;2023-12-20T09:17:52;7.75;;;1.40;;
75739;SDS011;64357;51.344;6.550;2023-12-20T09:20:18;8.18;;;1.92;;
75739;SDS011;64357;51.344;6.550;2023-12-20T09:22:44;9.05;;;1.75;;
75739;SDS011;64357;51.344;6.550;2023-12-20T09:25:10;9.70;;;1.90;;
75739;SDS011;64357;51.344;6.550;2023-12-20T09:27:36;5.57;;;1.63;;
75739;SDS011;64357;51.344;6.550;2023-12-20T09:30:04;6.78;;;1.10;;
75739;SDS011;64357;51.344;6.550;2023-12-20T09:32:30;9.52;;;2.20;;
75739;SDS011;64357;51.344;6.550;2023-12-20T09:34:56;9.95;;;2.03;;
75739;SDS011;64357;51.344;6.550;2023-12-20T09:37:21;10.43;;;1.50;;
75739;SDS011;64357;51.344;6.550;2023-12-20T09:39:49;7.15;;;1.80;;
75739;SDS011;64357;51.344;6.550;2023-12-20T09:42:15;9.03;;;1.47;;
75739;SDS011;64357;51.344;6.550;2023-12-20T09:44:46;9.35;;;1.60;;
75739;SDS011;64357;51.344;6.550;2023-12-20T09:47:12;9.65;;;1.58;;
75739;SDS011;64357;51.344;6.550;2023-12-20T09:49:40;7.85;;;1.40;;
75739;SDS011;64357;51.344;6.550;2023-12-20T09:52:07;13.88;;;2.35;;
75739;SDS011;64357;51.344;6.550;2023-12-20T09:54:34;11.20;;;2.13;;
75739;SDS011;64357;51.344;6.550;2023-12-20T09:56:59;6.43;;;1.95;;
75739;SDS011;64357;51.344;6.550;2023-12-20T09:59:25;6.90;;;1.90;;
75739;SDS011;64357;51.344;6.550;2023-12-20T10:01:50;12.90;;;2.57;;
75739;SDS011;64357;51.344;6.550;2023-12-20T10:04:20;5.68;;;1.50;;
75739;SDS011;64357;51.344;6.550;2023-12-20T10:06:45;9.90;;;2.77;;
75739;SDS011;64357;51.344;6.550;2023-12-20T10:09:13;8.70;;;2.00;;
75739;SDS011;64357;51.344;6.550;2023-12-20T10:11:41;3.45;;;1.35;;
75739;SDS011;64357;51.344;6.550;2023-12-20T10:14:06;6.30;;;1.97;;
75739;SDS011;64357;51.344;6.550;2023-12-20T10:16:32;10.88;;;2.10;;
75739;SDS011;64357;51.344;6.550;2023-12-20T10:18:58;9.75;;;1.92;;
75739;SDS011;64357;51.344;6.550;2023-12-20T10:21:26;12.23;;;2.42;;
75739;SDS011;64357;51.344;6.550;2023-12-20T10:23:54;7.30;;;1.75;;
75739;SDS011;64357;51.344;6.550;2023-12-20T10:26:21;12.43;;;3.05;;
75739;SDS011;64357;51.344;6.550;2023-12-20T10:28:50;5.68;;;1.00;;
75739;SDS011;64357;51.344;6.550;2023-12-20T10:33:52;7.10;;;1.50;;
75739;SDS011;64357;51.344;6.550;2023-12-20T10:36:17;5.03;;;1.25;;
75739;SDS011;64357;51.344;6.550;2023-12-20T10:38:43;11.90;;;1.63;;
75739;SDS011;64357;51.344;6.550;2023-12-20T10:41:09;9.52;;;2.38;;
75739;SDS011;64357;51.344;6.550;2023-12-20T10:43:39;8.45;;;1.77;;
75739;SDS011;64357;51.344;6.550;2023-12-20T10:46:05;8.50;;;2.10;;
75739;SDS011;64357;51.344;6.550;2023-12-20T10:48:33;6.55;;;1.23;;
75739;SDS011;64357;51.344;6.550;2023-12-20T10:51:00;12.65;;;1.73;;
75739;SDS011;64357;51.344;6.550;2023-12-20T10:53:31;9.98;;;1.75;;
75739;SDS011;64357;51.344;6.550;2023-12-20T10:55:59;10.80;;;1.92;;
75739;SDS011;64357;51.344;6.550;2023-12-20T10:58:28;5.00;;;1.02;;
75739;SDS011;64357;51.344;6.550;2023-12-20T11:00:59;7.65;;;1.70;;
75739;SDS011;64357;51.344;6.550;2023-12-20T11:03:27;5.05;;;1.15;;
75739;SDS011;64357;51.344;6.550;2023-12-20T11:06:03;6.30;;;1.27;;
75739;SDS011;64357;51.344;6.550;2023-12-20T11:11:33;12.70;;;2.63;;
75739;SDS011;64357;51.344;6.550;2023-12-20T11:14:29;9.35;;;1.92;;
75739;SDS011;64357;51.344;6.550;2023-12-20T11:17:09;8.18;;;1.63;;
75739;SDS011;64357;51.344;6.550;2023-12-20T11:19:43;9.38;;;1.70;;
75739;SDS011;64357;51.344;6.550;2023-12-20T11:22:25;3.40;;;0.75;;
75739;SDS011;64357;51.344;6.550;2023-12-20T11:24:57;6.20;;;1.52;;
75739;SDS011;64357;51.344;6.550;2023-12-20T11:27:33;5.10;;;1.58;;
75739;SDS011;64357;51.344;6.550;2023-12-20T11:29:59;9.20;;;2.13;;
75739;SDS011;64357;51.344;6.550;2023-12-20T11:32:28;2.13;;;0.70;;
75739;SDS011;64357;51.344;6.550;2023-12-20T11:34:56;14.70;;;2.35;;
75739;SDS011;64357;51.344;6.550;2023-12-20T11:37:28;8.57;;;1.92;;
75739;SDS011;64357;51.344;6.550;2023-12-20T11:39:56;5.38;;;1.60;;
75739;SDS011;64357;51.344;6.550;2023-12-20T11:42:26;9.30;;;1.65;;
75739;SDS011;64357;51.344;6.550;2023-12-20T11:44:52;7.45;;;1.63;;
75739;SDS011;64357;51.344;6.550;2023-12-20T11:47:18;8.52;;;1.92;;
75739;SDS011;64357;51.344;6.550;2023-12-20T11:49:47;5.60;;;1.33;;
75739;SDS011;64357;51.344;6.550;2023-12-20T11:52:13;7.13;;;1.52;;
75739;SDS011;64357;51.344;6.550;2023-12-20T11:54:39;5.20;;;1.45;;
75739;SDS011;64357;51.344;6.550;2023-12-20T11:57:04;5.80;;;1.10;;
75739;SDS011;64357;51.344;6.550;2023-12-20T11:59:32;6.93;;;1.50;;
75739;SDS011;64357;51.344;6.550;2023-12-20T12:01:59;7.55;;;1.60;;
75739;SDS011;64357;51.344;6.550;2023-12-20T12:04:30;9.35;;;1.55;;
75739;SDS011;64357;51.344;6.550;2023-12-20T12:06:56;7.73;;;1.70;;
75739;SDS011;64357;51.344;6.550;2023-12-20T12:09:23;10.07;;;2.00;;
75739;SDS011;64357;51.344;6.550;2023-12-20T12:11:52;9.70;;;1.70;;
75739;SDS011;64357;51.344;6.550;2023-12-20T12:14:17;8.85;;;2.00;;
75739;SDS011;64357;51.344;6.550;2023-12-20T12:16:51;5.35;;;1.20;;
75739;SDS011;64357;51.344;6.550;2023-12-20T12:19:21;7.43;;;1.77;;
75739;SDS011;64357;51.344;6.550;2023-12-20T12:21:48;8.27;;;2.00;;
75739;SDS011;64357;51.344;6.550;2023-12-20T12:24:14;7.43;;;1.63;;
75739;SDS011;64357;51.344;6.550;2023-12-20T12:26:39;7.35;;;1.92;;
75739;SDS011;64357;51.344;6.550;2023-12-20T12:29:08;8.40;;;1.90;;
75739;SDS011;64357;51.344;6.550;2023-12-20T12:31:34;7.60;;;1.60;;
75739;SDS011;64357;51.344;6.550;2023-12-20T12:34:02;10.60;;;1.52;;
75739;SDS011;64357;51.344;6.550;2023-12-20T12:36:29;5.22;;;1.60;;
75739;SDS011;64357;51.344;6.550;2023-12-20T12:38:56;9.52;;;2.13;;
75739;SDS011;64357;51.344;6.550;2023-12-20T12:41:24;8.63;;;2.10;;
75739;SDS011;64357;51.344;6.550;2023-12-20T12:43:50;5.47;;;1.75;;
75739;SDS011;64357;51.344;6.550;2023-12-20T12:46:17;7.68;;;1.92;;
75739;SDS011;64357;51.344;6.550;2023-12-20T12:48:43;7.15;;;1.70;;
75739;SDS011;64357;51.344;6.550;2023-12-20T12:51:08;14.63;;;2.22;;
75739;SDS011;64357;51.344;6.550;2023-12-20T12:53:38;7.95;;;1.73;;
75739;SDS011;64357;51.344;6.550;2023-12-20T12:56:03;10.07;;;2.47;;
75739;SDS011;64357;51.344;6.550;2023-12-20T12:58:31;8.85;;;1.98;;
75739;SDS011;64357;51.344;6.550;2023-12-20T13:00:57;8.02;;;2.20;;
75739;SDS011;64357;51.344;6.550;2023-12-20T13:03:23;9.45;;;2.10;;
75739;SDS011;64357;51.344;6.550;2023-12-20T13:05:52;5.63;;;1.58;;
75739;SDS011;64357;51.344;6.550;2023-12-20T13:08:21;7.78;;;1.92;;
75739;SDS011;64357;51.344;6.550;2023-12-20T13:10:49;5.72;;;2.10;;
75739;SDS011;64357;51.344;6.550;2023-12-20T13:13:17;7.80;;;2.25;;
75739;SDS011;64357;51.344;6.550;2023-12-20T13:15:42;13.70;;;2.85;;
75739;SDS011;64357;51.344;6.550;2023-12-20T13:18:13;10.10;;;2.33;;
75739;SDS011;64357;51.344;6.550;2023-12-20T13:20:38;8.48;;;3.00;;
75739;SDS011;64357;51.344;6.550;2023-12-20T13:23:10;5.38;;;1.65;;
75739;SDS011;64357;51.344;6.550;2023-12-20T13:25:35;10.10;;;1.98;;
75739;SDS011;64357;51.344;6.550;2023-12-20T13:28:03;10.25;;;2.50;;
75739;SDS011;64357;51.344;6.550;2023-12-20T13:30:31;13.93;;;3.25;;
75739;SDS011;64357;51.344;6.550;2023-12-20T13:32:56;9.95;;;2.80;;
75739;SDS011;64357;51.344;6.550;2023-12-20T13:35:21;3.35;;;1.33;;
75739;SDS011;64357;51.344;6.550;2023-12-20T13:37:47;10.15;;;3.15;;
75739;SDS011;64357;51.344;6.550;2023-12-20T13:40:12;7.13;;;1.60;;
75739;SDS011;64357;51.344;6.550;2023-12-20T13:42:38;10.20;;;2.33;;
75739;SDS011;64357;51.344;6.550;2023-12-20T13:45:04;8.25;;;2.38;;
75739;SDS011;64357;51.344;6.550;2023-12-20T13:47:31;10.70;;;2.45;;
75739;SDS011;64357;51.344;6.550;2023-12-20T13:49:56;8.02;;;2.10;;
75739;SDS011;64357;51.344;6.550;2023-12-20T13:52:22;6.93;;;1.90;;
75739;SDS011;64357;51.344;6.550;2023-12-20T13:54:47;7.70;;;1.63;;
75739;SDS011;64357;51.344;6.550;2023-12-20T13:57:15;13.63;;;3.13;;
75739;SDS011;64357;51.344;6.550;2023-12-20T13:59:40;5.57;;;1.83;;
75739;SDS011;64357;51.344;6.550;2023-12-20T14:02:09;6.35;;;1.92;;
75739;SDS011;64357;51.344;6.550;2023-12-20T14:04:34;7.13;;;2.00;;
75739;SDS011;64357;51.344;6.550;2023-12-20T14:07:00;3.83;;;1.02;;
75739;SDS011;64357;51.344;6.550;2023-12-20T14:09:26;7.10;;;1.80;;
75739;SDS011;64357;51.344;6.550;2023-12-20T14:11:51;5.07;;;1.80;;
75739;SDS011;64357;51.344;6.550;2023-12-20T14:14:16;20.67;;;2.25;;
75739;SDS011;64357;51.344;6.550;2023-12-20T14:16:44;7.45;;;2.60;;
75739;SDS011;64357;51.344;6.550;2023-12-20T14:19:12;8.20;;;2.38;;
75739;SDS011;64357;51.344;6.550;2023-12-20T14:21:37;6.82;;;1.98;;
75739;SDS011;64357;51.344;6.550;2023-12-20T14:24:03;5.28;;;1.80;;
75739;SDS011;64357;51.344;6.550;2023-12-20T14:26:33;5.20;;;1.58;;
75739;SDS011;64357;51.344;6.550;2023-12-20T14:28:58;13.18;;;2.80;;
75739;SDS011;64357;51.344;6.550;2023-12-20T14:31:23;13.53;;;2.90;;
75739;SDS011;64357;51.344;6.550;2023-12-20T14:33:52;7.35;;;2.22;;
75739;SDS011;64357;51.344;6.550;2023-12-20T14:36:25;3.63;;;1.58;;
75739;SDS011;64357;51.344;6.550;2023-12-20T14:38:53;10.88;;;2.35;;
75739;SDS011;64357;51.344;6.550;2023-12-20T14:41:24;6.22;;;1.98;;
75739;SDS011;64357;51.344;6.550;2023-12-20T14:43:50;7.30;;;1.25;;
75739;SDS011;64357;51.344;6.550;2023-12-20T14:46:17;13.20;;;3.00;;